Latest Weather Observations for Rottnest Island

IDW60801

Issued at 8:32 am WST Monday 20 April 2015 (issued every 30 minutes, with the page automatically refreshed every 10 minutes)

About weather observations | Map of weather stations | Latest weather observations for WA | Other Formats
Station Details ID: 009193 Name: ROTTNEST ISLAND Lat: -32.01 Lon: 115.50 Height: 43.1 m
Data from the previous 72 hours. | See also: Recent months at Rottnest Island
Date/Time
WST
Temp
°C
App
Temp
°C
Dew
Point
Rel
Hum
%
Delta-T
°C
Wind Press
QNH
hPa
Press
MSL
hPa
Rain
since 9 am
mm
Dir
 
Spd
km/h
Gust
km/h
Spd
kts
Gust
kts
20/08:30am 19.5 15.4 11.3 59 4.5 NE 24 35 13 19 1025.7 1025.6 0.0
20/08:00am 18.8 14.5 10.9 60 4.3 NE 24 33 13 18 1025.7 1025.6 0.0
20/07:30am 18.4 13.7 10.7 61 4.2 NE 26 39 14 21 1025.2 1025.1 0.0
20/07:00am 18.1 13.1 11.0 63 3.8 NE 28 37 15 20 1025.0 1024.9 0.0
20/06:30am 18.2 13.2 10.8 62 4.0 NE 28 39 15 21 1024.6 1024.5 0.0
20/06:00am 18.3 13.3 10.9 62 4.0 NE 28 37 15 20 1024.6 1024.5 0.0
20/05:30am 18.4 14.2 11.0 62 4.0 NE 24 33 13 18 1024.5 1024.4 0.0
20/05:00am 18.4 14.5 10.7 61 4.1 ENE 22 32 12 17 1024.4 1024.3 0.0
20/04:30am 18.5 14.6 10.8 61 4.2 ENE 22 32 12 17 1024.3 1024.2 0.0
20/04:00am 18.9 14.2 10.5 58 4.5 ENE 26 35 14 19 1024.2 1024.1 0.0
20/03:30am 19.3 14.1 10.3 56 4.8 NE 28 35 15 19 1024.3 1024.2 0.0
20/03:00am 19.3 14.9 10.3 56 4.8 ENE 24 33 13 18 1024.5 1024.4 0.0
20/02:30am 19.4 15.1 10.7 57 4.7 ENE 24 35 13 19 1024.5 1024.4 0.0
20/02:00am 19.7 15.3 10.4 55 5.0 ENE 24 33 13 18 1024.5 1024.4 0.0
20/01:30am 19.8 15.4 10.5 55 5.0 ENE 24 33 13 18 1024.7 1024.6 0.0
20/01:00am 19.9 16.2 10.3 54 5.2 ENE 20 28 11 15 1024.7 1024.6 0.0
20/12:30am 19.9 16.3 10.6 55 5.1 ENE 20 28 11 15 1024.8 1024.7 0.0
20/12:00am 20.2 16.8 10.6 54 5.2 ENE 19 26 10 14 1024.8 1024.7 0.0
 
Date/Time
WST
Temp
°C
App
Temp
°C
Dew
Point
Rel
Hum
%
Delta-T
°C
Wind Press
QNH
hPa
Press
MSL
hPa
Rain
since 9 am
mm
Dir
 
Spd
km/h
Gust
km/h
Spd
kts
Gust
kts
19/11:30pm 20.3 16.9 10.4 53 5.4 ENE 19 26 10 14 1024.9 1024.8 0.0
19/11:00pm 20.6 16.9 10.1 51 5.6 ENE 20 28 11 15 1025.0 1024.9 0.0
19/10:30pm 20.8 17.1 10.0 50 5.8 E 20 28 11 15 1025.1 1025.0 0.0
19/10:00pm 21.3 17.5 9.9 48 6.1 E 20 26 11 14 1025.2 1025.1 0.0
19/09:30pm 21.6 17.6 9.2 45 6.6 E 20 26 11 14 1025.2 1025.1 0.0
19/09:00pm 22.0 17.7 9.2 44 6.8 E 22 24 12 13 1025.2 1025.1 0.0
19/08:30pm 22.1 17.6 8.6 42 7.2 E 22 24 12 13 1025.0 1024.9 0.0
19/08:00pm 22.2 18.5 9.4 44 6.9 E 19 22 10 12 1024.9 1024.8 0.0
19/07:30pm 21.7 19.6 12.3 55 5.3 E 15 20 8 11 1024.6 1024.5 0.0
19/07:00pm 21.2 20.4 16.0 72 3.1 SE 15 17 8 9 1024.4 1024.3 0.0
19/06:30pm 21.1 20.4 16.3 74 2.9 SSE 15 19 8 10 1024.1 1024.0 0.0
19/06:00pm 21.3 20.0 15.8 71 3.3 SSE 17 20 9 11 1023.8 1023.7 0.0
19/05:30pm 21.6 20.5 15.2 67 3.8 SSE 15 19 8 10 1023.3 1023.2 0.0
19/05:00pm 22.4 21.7 15.5 65 4.1 SSE 13 17 7 9 1023.3 1023.2 0.0
19/04:30pm 23.3 22.1 14.0 56 5.5 SSE 13 17 7 9 1023.3 1023.2 0.0
19/04:00pm 24.1 22.4 12.4 48 6.7 SSE 13 17 7 9 1023.2 1023.1 0.0
19/03:30pm 25.6 24.3 12.4 43 7.6 ESE 11 17 6 9 1023.3 1023.2 0.0
19/03:00pm 25.2 21.9 8.2 34 9.1 ESE 15 20 8 11 1023.4 1023.3 0.0
19/02:30pm 25.8 22.1 7.9 32 9.6 E 17 22 9 12 1023.5 1023.4 0.0
19/02:00pm 25.2 21.6 8.2 34 9.1 E 17 22 9 12 1023.8 1023.7 0.0
19/01:30pm 25.1 21.0 8.6 35 8.9 NE 20 26 11 14 1024.0 1023.9 0.0
19/01:00pm 24.8 20.7 8.7 36 8.6 ENE 20 32 11 17 1024.3 1024.2 0.0
19/12:30pm 24.5 19.9 9.6 39 8.1 NE 24 35 13 19 1024.7 1024.6 0.0
19/12:00pm 23.6 18.6 9.6 41 7.6 NE 26 37 14 20 1025.2 1025.1 0.0
19/11:30am 22.8 16.4 9.2 42 7.3 NE 33 41 18 22 1025.5 1025.4 0.0
19/11:00am 22.3 15.9 9.5 44 6.9 NE 33 43 18 23 1025.7 1025.6 0.0
19/10:30am 21.9 15.8 9.8 46 6.5 NE 32 41 17 22 1026.0 1025.9 0.0
19/10:00am 20.8 14.6 9.4 48 6.1 NE 32 44 17 24 1026.1 1026.0 0.0
19/09:30am 20.4 14.1 9.6 50 5.8 NE 33 44 18 24 1026.1 1026.0 0.0
19/09:00am 19.7 13.6 10.4 55 5.0 NE 33 44 18 24 1026.1 1026.0 0.0
19/08:30am 18.8 13.3 10.4 58 4.5 NE 30 44 16 24 1025.8 1025.7 0.0
19/08:00am 18.3 12.9 10.9 62 4.0 ENE 30 43 16 23 1025.5 1025.4 0.0
19/07:30am 17.8 12.0 10.9 64 3.7 ENE 32 44 17 24 1025.0 1024.9 0.0
19/07:00am 17.3 12.3 11.1 67 3.3 ENE 28 39 15 21 1024.8 1024.7 0.0
19/06:30am 17.2 11.8 11.0 67 3.3 ENE 30 39 16 21 1024.5 1024.4 0.0
19/06:00am 17.2 12.6 11.0 67 3.3 ENE 26 39 14 21 1024.3 1024.2 0.0
19/05:30am 17.4 13.2 11.2 67 3.4 ENE 24 37 13 20 1024.1 1024.0 0.0
19/05:00am 17.7 12.8 11.3 66 3.5 ENE 28 43 15 23 1023.8 1023.7 0.0
19/04:30am 17.8 12.6 11.6 67 3.4 ENE 30 43 16 23 1023.5 1023.4 0.0
19/04:00am 17.8 13.8 11.8 68 3.3 ENE 24 35 13 19 1023.3 1023.2 0.0
19/03:30am 18.2 13.0 11.5 65 3.7 ENE 30 41 16 22 1023.2 1023.1 0.0
19/03:00am 18.4 13.7 11.9 66 3.6 ENE 28 39 15 21 1023.3 1023.2 0.0
19/02:30am 18.1 14.6 12.3 69 3.2 E 22 33 12 18 1023.4 1023.3 0.0
19/02:00am 18.1 14.7 12.5 70 3.1 E 22 30 12 16 1023.4 1023.3 0.0
19/01:30am 18.2 14.9 12.9 71 3.0 E 22 30 12 16 1023.5 1023.4 0.0
19/01:00am 18.4 14.7 12.6 69 3.2 E 24 32 13 17 1023.4 1023.3 0.0
19/12:30am 18.5 15.5 12.0 66 3.6 E 19 26 10 14 1023.4 1023.3 0.0
19/12:00am 18.9 15.8 11.5 62 4.0 E 19 26 10 14 1023.4 1023.3 0.0
 
Date/Time
WST
Temp
°C
App
Temp
°C
Dew
Point
Rel
Hum
%
Delta-T
°C
Wind Press
QNH
hPa
Press
MSL
hPa
Rain
since 9 am
mm
Dir
 
Spd
km/h
Gust
km/h
Spd
kts
Gust
kts
18/11:30pm 19.4 15.9 10.9 58 4.6 ESE 20 26 11 14 1023.4 1023.3 0.0
18/11:00pm 20.0 16.6 10.4 54 5.2 E 19 24 10 13 1023.8 1023.7 0.0
18/10:30pm 20.4 16.9 10.2 52 5.5 E 19 24 10 13 1023.8 1023.7 0.0
18/10:00pm 20.5 16.9 10.0 51 5.6 ESE 19 26 10 14 1023.8 1023.7 0.0
18/09:30pm 20.5 17.2 10.9 54 5.3 ESE 19 26 10 14 1023.7 1023.6 0.0
18/09:00pm 20.8 18.7 12.5 59 4.7 ESE 15 20 8 11 1023.5 1023.4 0.0
18/08:30pm 20.7 19.6 15.3 71 3.2 SE 15 19 8 10 1023.3 1023.2 0.0
18/08:00pm 21.0 19.4 16.0 73 3.0 SSE 19 24 10 13 1023.0 1022.9 0.0
18/07:30pm 20.6 18.4 16.0 75 2.8 SSE 22 30 12 16 1022.9 1022.8 0.0
18/07:00pm 20.4 17.9 16.2 77 2.5 SSE 24 32 13 17 1022.5 1022.4 0.0
18/06:30pm 20.2 16.9 16.0 77 2.5 S 28 33 15 18 1022.2 1022.1 0.0
18/06:00pm 20.1 17.0 15.7 76 2.6 S 26 33 14 18 1022.0 1021.9 0.0
18/05:30pm 20.5 17.0 15.5 73 3.0 S 28 33 15 18 1021.7 1021.6 0.0
18/05:00pm 21.1 17.3 14.7 67 3.8 S 28 32 15 17 1021.5 1021.4 0.0
18/04:30pm 21.8 19.1 14.7 64 4.2 S 22 32 12 17 1021.5 1021.4 0.0
18/04:00pm 22.1 19.4 13.5 58 5.0 S 20 26 11 14 1021.6 1021.5 0.0
18/03:30pm 23.1 21.0 14.7 59 5.0 S 19 22 10 12 1021.7 1021.6 0.0
18/03:00pm 23.4 21.3 12.4 50 6.3 S 15 17 8 9 1021.7 1021.6 0.0
18/02:30pm 23.4 20.7 11.8 48 6.6 SSE 17 22 9 12 1021.7 1021.6 0.0
18/02:00pm 24.1 21.7 10.0 41 7.7 E 13 22 7 12 1022.0 1021.9 0.0
18/01:30pm 24.0 20.3 9.6 40 7.9 SE 19 28 10 15 1022.1 1022.0 0.0
18/01:00pm 23.5 20.0 10.2 43 7.3 ENE 19 24 10 13 1022.4 1022.3 0.0
18/12:30pm 23.2 19.7 10.3 44 7.1 ENE 19 26 10 14 1023.1 1023.0 0.0
18/12:00pm 22.5 18.8 10.3 46 6.7 ENE 20 26 11 14 1023.3 1023.2 0.0
18/11:30am 22.5 19.1 11.3 49 6.2 ENE 20 32 11 17 1023.6 1023.5 0.0
18/11:00am 21.0 16.7 10.8 52 5.6 E 24 32 13 17 1023.8 1023.7 0.0
18/10:30am 20.2 15.0 10.3 53 5.4 E 28 37 15 20 1023.9 1023.8 0.0
18/10:00am 20.0 15.3 10.7 55 5.0 ENE 26 35 14 19 1024.0 1023.9 0.0
18/09:30am 19.1 15.1 10.6 58 4.6 ENE 22 32 12 17 1024.2 1024.1 0.0
18/09:00am 18.4 14.2 11.0 62 4.0 E 24 33 13 18 1024.2 1024.1 0.0
18/08:30am 17.6 13.7 10.7 64 3.7 E 22 32 12 17 1024.2 1024.1 0.0
18/08:00am 17.1 12.7 10.5 65 3.5 E 24 32 13 17 1023.9 1023.8 0.0
18/07:30am 16.2 12.6 10.5 69 3.0 E 20 32 11 17 1023.4 1023.3 0.0
18/07:00am 15.5 11.8 10.3 71 2.7 ESE 20 28 11 15 1023.1 1023.0 0.0
18/06:30am 15.9 12.5 10.4 70 2.9 ESE 19 28 10 15 1022.9 1022.8 0.0
18/06:00am 16.1 11.8 10.6 70 2.9 SE 24 33 13 18 1022.6 1022.5 0.0
18/05:30am 15.9 12.8 10.4 70 2.9 ESE 17 28 9 15 1022.4 1022.3 0.0
18/05:00am 16.1 12.7 10.4 69 3.0 ESE 19 30 10 16 1022.3 1022.2 0.0
18/04:30am 16.3 12.4 10.8 70 2.9 SE 22 35 12 19 1022.2 1022.1 0.0
18/04:00am 16.3 12.5 11.0 71 2.8 SE 22 35 12 19 1022.1 1022.0 0.0
18/03:30am 16.6 11.6 11.1 70 3.0 SE 28 35 15 19 1022.0 1021.9 0.0
18/03:00am 16.9 11.2 11.0 68 3.2 SE 32 39 17 21 1022.1 1022.0 0.0
18/02:30am 17.1 11.0 11.6 70 3.0 SE 35 41 19 22 1022.3 1022.2 0.0
18/02:00am 16.9 11.4 11.8 72 2.8 SE 32 41 17 22 1022.2 1022.1 0.0
18/01:30am 17.2 12.4 12.9 76 2.4 SE 30 39 16 21 1022.2 1022.1 0.0
18/01:00am 17.5 12.5 13.4 77 2.3 SSE 32 39 17 21 1022.1 1022.0 0.0
18/12:30am 17.8 12.1 12.9 73 2.7 SSE 35 43 19 23 1021.9 1021.8 0.0
18/12:00am 18.0 12.3 12.9 72 2.9 SSE 35 43 19 23 1022.0 1021.9 0.0
 
Date/Time
WST
Temp
°C
App
Temp
°C
Dew
Point
Rel
Hum
%
Delta-T
°C
Wind Press
QNH
hPa
Press
MSL
hPa
Rain
since 9 am
mm
Dir
 
Spd
km/h
Gust
km/h
Spd
kts
Gust
kts
17/11:30pm 18.2 12.0 12.6 70 3.1 SSE 37 44 20 24 1022.0 1021.9 0.0
17/11:00pm 18.7 13.0 13.1 70 3.2 SSE 35 46 19 25 1022.2 1022.1 0.0
17/10:30pm 18.8 13.1 13.0 69 3.3 SSE 35 43 19 23 1022.3 1022.2 0.0
17/10:00pm 18.9 12.8 12.9 68 3.4 SSE 37 44 20 24 1022.2 1022.1 0.0
17/09:30pm 18.9 12.8 13.1 69 3.3 S 37 44 20 24 1022.4 1022.3 0.0
17/09:00pm 18.8 12.6 12.5 67 3.5 S 37 44 20 24 1022.4 1022.3 0.0
17/08:30pm 18.8 12.6 12.5 67 3.5 S 37 46 20 25 1022.4 1022.3 0.0
17/08:00pm 18.7 12.5 12.7 68 3.4 S 37 44 20 24 1022.3 1022.2 0.0
17/07:30pm 18.6 12.8 12.6 68 3.4 S 35 44 19 24 1022.3 1022.2 0.0
17/07:00pm 18.7 13.0 11.8 64 3.8 S 33 41 18 22 1022.1 1022.0 0.0
17/06:30pm 18.6 12.0 11.2 62 4.0 S 37 44 20 24 1021.8 1021.7 0.0
17/06:00pm 18.7 13.0 11.3 62 4.0 S 32 37 17 20 1021.6 1021.5 0.0
17/05:30pm 18.8 13.8 10.9 60 4.3 S 28 35 15 19 1021.5 1021.4 0.0
17/05:00pm 18.8 13.4 10.9 60 4.3 S 30 35 16 19 1021.4 1021.3 0.0
17/04:30pm 19.4 14.3 10.7 57 4.7 S 28 32 15 17 1021.4 1021.3 0.0
17/04:00pm 20.4 16.4 10.5 53 5.4 S 22 30 12 16 1021.8 1021.7 0.0
17/03:30pm 20.8 16.9 10.9 53 5.4 S 22 28 12 15 1021.9 1021.8 0.0
17/03:00pm 20.6 17.6 12.6 60 4.5 S 20 28 11 15 1022.1 1022.0 0.0
17/02:30pm 20.3 17.0 12.8 62 4.2 S 22 28 12 15 1022.1 1022.0 0.0
17/02:00pm 19.9 16.5 12.4 62 4.2 S 22 28 12 15 1022.3 1022.2 0.0
17/01:30pm 19.8 16.9 12.3 62 4.2 S 19 22 10 12 1022.7 1022.6 0.0
17/01:00pm 20.2 17.8 12.7 62 4.2 SSE 17 20 9 11 1023.0 1022.9 0.0
17/12:30pm 19.6 17.1 12.4 63 4.0 SSE 17 20 9 11 1023.5 1023.4 0.0
17/12:00pm 19.9 17.7 12.2 61 4.3 SSE 15 20 8 11 1024.3 1024.2 0.0
17/11:30am 20.3 18.6 12.3 60 4.5 SSE 13 20 7 11 1024.7 1024.6 0.0
17/11:00am 20.4 19.8 11.6 57 4.9 NNW 6 13 3 7 1025.2 1025.1 0.0
17/10:30am 19.4 18.1 11.2 59 4.5 N 9 15 5 8 1025.6 1025.5 0.0
17/10:00am 19.7 18.4 11.2 58 4.6 NNW 9 17 5 9 1025.9 1025.8 0.0
17/09:30am 18.6 15.9 10.4 59 4.4 NNE 15 20 8 11 1025.9 1025.8 0.0
17/09:00am 18.4 15.7 10.5 60 4.2 NNE 15 19 8 10 1026.0 1025.9 0.0

Other Formats:

Comma delimited format used in spreadsheet applications
http://www.bom.gov.au/fwo/IDW60801/IDW60801.94602.axf

JavaScript Object Notation format (JSON) in row-major order
http://www.bom.gov.au/fwo/IDW60801/IDW60801.94602.json